Time;durP1;ratioP1;P1;durP2;ratioP2;P2;SDS_P1;SDS_P2;PMS_P1;PMS_P2;Temp;Humidity;BMP_temperature;BMP_pressure;BME280_temperature;BME280_humidity;BME280_pressure;Samples;Min_cycle;Max_cycle;Signal;HPM_P1;HPM_P2
2022/01/09 00:02:06;;;;;;;22.20;8.00;;;;;;;0.33;54.77;99316.63;5075269;28;20056;-75
2022/01/09 00:04:32;;;;;;;23.30;8.75;;;;;;;0.60;53.98;99318.75;5075983;28;20128;-75
2022/01/09 00:06:59;;;;;;;16.90;7.65;;;;;;;0.71;53.45;99308.09;5076354;28;20510;-75
2022/01/09 00:09:27;;;;;;;16.50;7.85;;;;;;;0.21;54.08;99314.06;5076469;28;20044;-75
2022/01/09 00:11:54;;;;;;;13.48;7.22;;;;;;;0.43;54.11;99309.63;5076166;28;20128;-75
2022/01/09 00:14:20;;;;;;;12.80;6.75;;;;;;;0.47;53.90;99301.31;5076889;28;20067;-75
2022/01/09 00:16:46;;;;;;;16.55;6.93;;;;;;;-0.32;55.80;99314.06;5076296;28;20569;-75
2022/01/09 00:19:13;;;;;;;15.80;6.60;;;;;;;0.40;54.47;99307.22;5076878;28;20132;-75
2022/01/09 00:21:39;;;;;;;14.88;6.93;;;;;;;-0.15;54.81;99302.16;5076970;28;20049;-75
2022/01/09 00:24:06;;;;;;;10.40;6.25;;;;;;;-0.06;54.96;99303.19;5075790;28;20529;-76
2022/01/09 00:26:32;;;;;;;18.90;7.13;;;;;;;-0.26;55.76;99287.22;5072809;28;20072;-75
2022/01/09 00:28:59;;;;;;;14.32;6.47;;;;;;;0.23;53.72;99279.66;5076815;28;20119;-76
2022/01/09 00:31:26;;;;;;;18.75;6.45;;;;;;;0.04;53.68;99283.81;5076114;28;20053;-76
2022/01/09 00:33:52;;;;;;;17.60;6.82;;;;;;;0.24;53.66;99273.41;5075674;28;20060;-75
2022/01/09 00:36:19;;;;;;;17.85;6.90;;;;;;;0.01;54.23;99272.69;5076745;28;20065;-75
2022/01/09 00:38:45;;;;;;;15.73;6.82;;;;;;;0.10;53.94;99263.19;5075026;28;20120;-75
2022/01/09 00:41:12;;;;;;;22.33;6.40;;;;;;;0.49;52.41;99266.88;5075191;28;20050;-75
2022/01/09 00:43:38;;;;;;;16.13;7.10;;;;;;;0.23;53.01;99266.47;5074609;28;20132;-76
2022/01/09 00:46:05;;;;;;;12.80;6.60;;;;;;;0.15;53.57;99267.09;5075367;28;20048;-75
2022/01/09 00:48:31;;;;;;;15.27;6.43;;;;;;;0.48;52.08;99260.78;5075783;28;20131;-75
2022/01/09 00:50:58;;;;;;;10.77;5.88;;;;;;;0.67;51.73;99272.38;5075431;28;20049;-76
2022/01/09 00:53:25;;;;;;;12.15;5.32;;;;;;;0.16;52.86;99260.06;5071971;28;20048;-75
2022/01/09 00:55:52;;;;;;;13.90;6.20;;;;;;;0.35;52.23;99256.69;5076142;28;20066;-75
2022/01/09 00:58:18;;;;;;;12.40;6.13;;;;;;;-0.35;53.98;99255.50;5076544;28;20040;-75
2022/01/09 01:00:45;;;;;;;14.65;5.30;;;;;;;0.48;51.72;99254.66;5076502;28;20139;-75
2022/01/09 01:03:11;;;;;;;10.63;6.40;;;;;;;0.91;51.27;99248.28;5076763;28;20464;-76
2022/01/09 01:05:38;;;;;;;9.98;5.70;;;;;;;0.93;50.95;99243.72;5075666;28;20048;-76
2022/01/09 01:08:04;;;;;;;15.10;6.20;;;;;;;0.46;51.63;99233.69;5075267;28;20560;-76
2022/01/09 01:10:31;;;;;;;11.05;6.55;;;;;;;0.67;51.28;99233.63;5075987;28;20453;-76
2022/01/09 01:12:58;;;;;;;13.35;5.80;;;;;;;0.99;49.89;99227.34;5077235;28;20045;-76
2022/01/09 01:15:24;;;;;;;12.25;6.15;;;;;;;0.92;50.70;99227.06;5075879;28;20089;-76
2022/01/09 01:17:51;;;;;;;12.60;5.45;;;;;;;0.09;52.96;99238.63;5056721;28;20108;-75
2022/01/09 01:20:21;;;;;;;10.77;5.32;;;;;;;0.19;52.46;99228.13;5075189;28;20052;-76
2022/01/09 01:22:50;;;;;;;16.25;6.03;;;;;;;0.43;52.23;99220.75;5075201;28;20052;-76
2022/01/09 01:25:20;;;;;;;12.07;6.47;;;;;;;0.46;52.55;99220.47;5073940;28;20041;-75
2022/01/09 01:27:47;;;;;;;12.48;6.20;;;;;;;0.17;52.96;99224.78;5074213;28;20087;-75
2022/01/09 01:30:13;;;;;;;15.32;6.28;;;;;;;-0.20;53.24;99223.44;5074859;28;20064;-75
2022/01/09 01:32:41;;;;;;;17.88;6.63;;;;;;;0.94;51.15;99214.53;5074864;28;20080;-75
2022/01/09 01:35:09;;;;;;;14.98;6.82;;;;;;;0.45;52.42;99212.72;5075591;28;20443;-75
2022/01/09 01:37:41;;;;;;;15.70;7.32;;;;;;;-0.16;54.12;99205.56;5075367;28;20071;-75
2022/01/09 01:40:12;;;;;;;12.45;6.38;;;;;;;-0.57;54.69;99201.97;5074548;28;20067;-75
2022/01/09 01:42:38;;;;;;;15.43;6.93;;;;;;;-0.16;53.99;99187.13;5075776;28;20055;-75
2022/01/09 01:45:06;;;;;;;17.05;7.40;;;;;;;-0.28;54.23;99193.44;5074140;28;20090;-75
2022/01/09 01:47:32;;;;;;;20.90;7.57;;;;;;;0.15;53.65;99179.25;5073535;28;20143;-75
2022/01/09 01:49:59;;;;;;;16.20;6.88;;;;;;;0.35;52.74;99186.28;5075870;28;20040;-75
2022/01/09 01:52:35;;;;;;;17.10;7.90;;;;;;;0.32;53.25;99183.91;5075050;28;20052;-75
2022/01/09 01:55:02;;;;;;;17.23;8.55;;;;;;;0.05;53.78;99185.31;5073664;28;20127;-75
2022/01/09 01:57:30;;;;;;;18.00;8.32;;;;;;;-0.06;54.27;99179.28;5075240;28;20072;-75
2022/01/09 01:59:57;;;;;;;18.55;8.13;;;;;;;-0.53;54.51;99173.56;5075202;28;20050;-75
2022/01/09 02:02:25;;;;;;;18.15;7.20;;;;;;;-0.15;54.00;99173.00;5074843;28;20124;-75
2022/01/09 02:04:52;;;;;;;17.95;7.97;;;;;;;-0.05;53.77;99168.63;5073553;28;20044;-75
2022/01/09 02:07:35;;;;;;;21.05;7.97;;;;;;;-0.04;53.66;99153.63;5074802;28;20075;-75
2022/01/09 02:10:07;;;;;;;18.33;7.78;;;;;;;0.16;53.13;99155.41;5071388;28;20120;-75
2022/01/09 02:12:37;;;;;;;17.30;8.27;;;;;;;0.45;52.54;99158.13;5073617;28;20052;-75
2022/01/09 02:15:27;;;;;;;20.10;8.45;;;;;;;-0.06;53.08;99142.38;5074317;28;20040;-75
2022/01/09 02:17:54;;;;;;;15.00;6.95;;;;;;;-0.08;53.49;99139.03;5073746;28;20075;-75
2022/01/09 02:20:21;;;;;;;17.83;8.13;;;;;;;0.41;52.41;99143.56;5073005;28;20102;-75
2022/01/09 02:22:48;;;;;;;15.13;8.10;;;;;;;0.12;52.69;99142.59;5072095;28;20123;-75
2022/01/09 02:25:15;;;;;;;21.23;7.63;;;;;;;-0.37;54.72;99146.75;5075227;28;20116;-75
2022/01/09 02:27:42;;;;;;;16.33;8.43;;;;;;;-0.17;53.51;99140.66;5074015;28;20060;-75
2022/01/09 02:30:10;;;;;;;21.27;8.75;;;;;;;-0.25;54.10;99127.28;5071878;28;20071;-75
2022/01/09 02:32:36;;;;;;;19.83;8.63;;;;;;;-0.10;53.91;99131.25;5072743;28;20107;-75
2022/01/09 02:35:03;;;;;;;21.88;8.13;;;;;;;-0.00;53.71;99115.47;5073432;28;20083;-75
2022/01/09 02:37:30;;;;;;;17.85;7.60;;;;;;;-0.30;54.73;99111.84;5073429;28;20098;-75
2022/01/09 02:39:56;;;;;;;16.33;7.75;;;;;;;0.24;52.52;99105.44;5073655;28;20136;-75
2022/01/09 02:42:26;;;;;;;15.55;7.72;;;;;;;-0.40;54.40;99110.97;5073352;28;20516;-75
2022/01/09 02:44:55;;;;;;;19.75;8.38;;;;;;;0.18;52.68;99107.78;5074413;28;20046;-75
2022/01/09 02:47:23;;;;;;;15.65;7.70;;;;;;;-0.31;53.86;99110.19;5074392;28;20048;-75
2022/01/09 02:49:52;;;;;;;19.52;8.35;;;;;;;0.26;52.60;99097.38;5074170;28;20063;-75
2022/01/09 02:52:48;;;;;;;18.27;8.57;;;;;;;-0.07;54.22;99091.44;5074067;28;20068;-75
2022/01/09 02:55:15;;;;;;;19.15;8.50;;;;;;;0.75;51.74;99093.91;5073946;28;20131;-75
2022/01/09 02:57:47;;;;;;;15.25;8.07;;;;;;;0.76;50.95;99084.19;5073342;28;20449;-75
2022/01/09 03:00:44;;;;;;;20.35;8.68;;;;;;;0.78;51.57;99084.88;5073996;28;20095;-75
2022/01/09 03:03:12;;;;;;;18.75;8.70;;;;;;;0.41;52.62;99082.03;5051830;28;20472;-75
2022/01/09 03:05:38;;;;;;;17.27;8.48;;;;;;;0.59;52.14;99087.50;5071375;28;20131;-75
2022/01/09 03:08:05;;;;;;;19.77;8.25;;;;;;;0.38;52.70;99084.94;5071835;28;20123;-75
2022/01/09 03:10:31;;;;;;;26.98;9.23;;;;;;;0.82;51.60;99081.00;5074159;28;20171;-75
2022/01/09 03:12:58;;;;;;;18.70;9.02;;;;;;;0.37;52.96;99081.47;5075206;28;20064;-75
2022/01/09 03:15:25;;;;;;;20.33;8.75;;;;;;;0.48;52.44;99077.88;5075217;28;20087;-75
2022/01/09 03:17:52;;;;;;;18.38;9.00;;;;;;;0.79;51.33;99068.06;5065249;28;20051;-75
2022/01/09 03:20:22;;;;;;;19.30;8.63;;;;;;;0.57;51.92;99063.03;5076240;28;20481;-75
2022/01/09 03:22:49;;;;;;;16.95;8.93;;;;;;;0.83;51.30;99052.78;5075665;28;20119;-75
2022/01/09 03:25:16;;;;;;;21.25;8.60;;;;;;;0.14;52.73;99057.13;5071264;28;20113;-75
2022/01/09 03:27:45;;;;;;;17.70;8.32;;;;;;;-0.30;54.03;99051.25;5074520;28;20072;-75
2022/01/09 03:30:12;;;;;;;19.85;8.02;;;;;;;0.09;53.62;99053.19;5072724;28;20511;-75
2022/01/09 03:32:40;;;;;;;18.52;8.15;;;;;;;0.45;52.26;99063.16;5075629;28;20155;-75
2022/01/09 03:35:10;;;;;;;21.15;8.20;;;;;;;-0.09;53.80;99051.19;5073825;28;20049;-76
2022/01/09 03:37:37;;;;;;;23.60;8.90;;;;;;;0.12;53.62;99052.94;5073818;28;20076;-75
2022/01/09 03:40:06;;;;;;;18.73;8.95;;;;;;;-0.17;54.20;99045.75;5075232;28;20140;-75
2022/01/09 03:42:32;;;;;;;18.35;7.88;;;;;;;0.20;53.09;99045.19;5075285;28;20131;-75
2022/01/09 03:44:59;;;;;;;23.75;7.93;;;;;;;-0.13;54.28;99049.78;5076067;28;20473;-75
2022/01/09 03:47:25;;;;;;;16.83;8.27;;;;;;;-0.28;54.23;99046.69;5076140;28;20218;-75
2022/01/09 03:49:52;;;;;;;18.58;8.98;;;;;;;0.35;53.07;99048.28;5075677;28;20373;-75
2022/01/09 03:52:19;;;;;;;17.83;8.43;;;;;;;0.13;53.39;99044.06;5073525;28;20127;-75
2022/01/09 03:54:45;;;;;;;20.75;8.20;;;;;;;-0.21;54.45;99049.63;5074846;28;20442;-75
2022/01/09 03:57:12;;;;;;;17.50;7.75;;;;;;;-0.05;53.95;99051.75;5073669;28;20245;-75
2022/01/09 03:59:38;;;;;;;17.95;7.55;;;;;;;0.86;51.38;99037.50;5073824;28;20127;-75
2022/01/09 04:02:04;;;;;;;16.67;7.97;;;;;;;0.10;53.67;99028.53;5073994;28;20054;-75
2022/01/09 04:04:31;;;;;;;14.55;8.05;;;;;;;0.59;52.00;99035.53;5072275;28;20131;-75
2022/01/09 04:06:57;;;;;;;20.27;6.97;;;;;;;0.09;52.78;99032.09;5073040;28;20117;-75
2022/01/09 04:09:40;;;;;;;21.50;8.50;;;;;;;0.71;51.86;99038.88;5071723;28;20083;-75
2022/01/09 04:12:15;;;;;;;18.35;7.68;;;;;;;0.44;51.99;99037.75;5074436;28;20064;-75
2022/01/09 04:14:44;;;;;;;14.63;6.75;;;;;;;0.53;51.66;99033.44;5063557;28;20041;-75
2022/01/09 04:17:18;;;;;;;20.90;7.47;;;;;;;0.74;51.11;99033.31;5062546;28;20044;-75
2022/01/09 04:19:44;;;;;;;14.80;7.00;;;;;;;1.26;50.27;99031.19;5073039;28;20052;-75
2022/01/09 04:22:11;;;;;;;18.63;7.22;;;;;;;0.46;51.93;99030.50;5071587;28;20131;-75
2022/01/09 04:24:37;;;;;;;17.55;6.90;;;;;;;0.95;50.95;99025.25;5073300;28;20544;-75
2022/01/09 04:27:05;;;;;;;15.25;6.25;;;;;;;0.70;51.33;99021.38;5074576;28;20496;-75
2022/01/09 04:29:32;;;;;;;16.80;7.38;;;;;;;0.94;50.58;99028.88;5072839;28;20166;-75
2022/01/09 04:31:58;;;;;;;18.63;7.15;;;;;;;1.05;50.44;99017.31;5073721;28;20458;-75
2022/01/09 04:34:24;;;;;;;15.85;7.60;;;;;;;0.94;51.05;99005.94;5075062;28;20083;-75
2022/01/09 04:36:51;;;;;;;13.25;6.55;;;;;;;1.11;50.63;98999.13;5074170;28;20520;-75
2022/01/09 04:39:17;;;;;;;21.75;7.30;;;;;;;0.69;51.14;98994.16;5073537;28;20123;-75
2022/01/09 04:41:44;;;;;;;13.80;7.28;;;;;;;0.42;52.19;98999.28;5074089;28;20098;-75
2022/01/09 04:44:10;;;;;;;15.15;6.53;;;;;;;0.36;52.31;98991.91;5071395;28;20465;-75
2022/01/09 04:46:47;;;;;;;21.67;7.00;;;;;;;0.80;51.21;98995.81;5074950;28;20537;-75
2022/01/09 04:49:13;;;;;;;16.70;6.55;;;;;;;0.91;50.54;98989.56;5073358;28;20521;-75
2022/01/09 04:51:40;;;;;;;15.23;6.07;;;;;;;0.55;51.38;98986.66;5065870;28;20132;-75
2022/01/09 04:54:06;;;;;;;14.48;6.65;;;;;;;0.51;51.57;98988.75;5073925;28;20044;-75
2022/01/09 04:56:33;;;;;;;14.43;5.35;;;;;;;0.32;51.66;98993.16;5074727;28;20040;-76
2022/01/09 04:58:59;;;;;;;21.73;7.03;;;;;;;0.89;50.54;98989.69;5074735;28;20075;-75
2022/01/09 05:01:26;;;;;;;17.33;7.07;;;;;;;0.63;51.33;98980.69;5073346;28;20072;-75
2022/01/09 05:03:52;;;;;;;14.85;6.93;;;;;;;0.93;50.17;98982.34;5074155;28;20044;-75
2022/01/09 05:06:20;;;;;;;16.35;6.63;;;;;;;0.71;51.49;98986.09;5074151;28;20047;-75
2022/01/09 05:08:46;;;;;;;16.65;6.80;;;;;;;0.85;50.62;98988.31;5073471;28;20123;-75
2022/01/09 05:11:12;;;;;;;14.23;5.97;;;;;;;0.29;52.34;98994.25;5072490;28;20072;-75
2022/01/09 05:13:39;;;;;;;12.90;5.78;;;;;;;0.26;52.37;98999.81;5069276;28;20272;-75
2022/01/09 05:16:05;;;;;;;15.63;6.20;;;;;;;0.74;51.11;98999.00;5071957;28;20112;-75
2022/01/09 05:18:40;;;;;;;15.10;5.60;;;;;;;0.98;50.33;98999.41;5072167;28;20124;-75
2022/01/09 05:21:06;;;;;;;14.27;5.85;;;;;;;0.94;50.41;99005.94;5072190;28;20504;-75
2022/01/09 05:23:33;;;;;;;13.68;5.63;;;;;;;0.45;51.41;98991.91;5072009;28;20072;-75
2022/01/09 05:26:00;;;;;;;12.63;5.72;;;;;;;0.55;51.20;98991.09;5068476;28;20120;-75
2022/01/09 05:28:26;;;;;;;11.45;5.20;;;;;;;0.82;50.27;98993.06;5072770;28;20429;-75
2022/01/09 05:30:53;;;;;;;12.95;5.20;;;;;;;0.88;50.50;98990.66;5072930;28;20045;-75
2022/01/09 05:33:19;;;;;;;18.88;5.60;;;;;;;0.59;51.32;98988.03;5072556;28;20493;-75
2022/01/09 05:35:46;;;;;;;13.20;5.63;;;;;;;0.63;51.15;98988.59;5073228;28;20485;-75
2022/01/09 05:38:13;;;;;;;12.25;5.28;;;;;;;0.42;51.38;98980.81;5072788;28;20127;-75
2022/01/09 05:40:40;;;;;;;13.30;6.13;;;;;;;0.42;50.93;98991.38;5072527;28;20080;-75
2022/01/09 05:43:06;;;;;;;16.17;5.68;;;;;;;0.59;51.07;98987.22;5074266;28;20065;-75
2022/01/09 05:45:33;;;;;;;12.10;5.55;;;;;;;-0.03;52.76;98995.31;5073324;28;20071;-75
2022/01/09 05:48:01;;;;;;;15.48;5.03;;;;;;;-0.19;52.93;98987.09;5072831;28;20374;-75
2022/01/09 05:50:28;;;;;;;14.05;5.43;;;;;;;0.08;51.90;98999.63;5072915;28;20075;-75
2022/01/09 05:52:54;;;;;;;13.27;4.68;;;;;;;0.16;52.27;98991.91;5072267;28;20049;-75
2022/01/09 05:55:21;;;;;;;10.88;4.88;;;;;;;0.13;52.31;98996.59;5073222;28;20217;-75
2022/01/09 05:57:47;;;;;;;15.65;5.30;;;;;;;0.18;52.09;98989.13;5067698;28;20481;-75
2022/01/09 06:00:15;;;;;;;11.95;5.22;;;;;;;0.19;51.89;98980.22;5072354;28;20060;-75
2022/01/09 06:02:41;;;;;;;17.20;5.43;;;;;;;0.43;51.48;98993.84;5071760;28;20098;-75
2022/01/09 06:05:08;;;;;;;12.63;5.43;;;;;;;0.56;50.92;98987.50;5073239;28;20048;-75
2022/01/09 06:07:41;;;;;;;10.45;4.65;;;;;;;0.91;49.99;98992.19;5073396;28;20396;-75
2022/01/09 06:10:09;;;;;;;12.98;5.43;;;;;;;0.82;50.79;98993.88;5070648;28;20067;-75
2022/01/09 06:12:37;;;;;;;10.73;5.45;;;;;;;1.60;48.75;98998.97;5073806;28;20060;-75
2022/01/09 06:15:04;;;;;;;17.40;6.00;;;;;;;1.24;49.34;98988.25;5072147;28;20037;-75
2022/01/09 06:17:38;;;;;;;11.63;5.68;;;;;;;1.58;48.37;98990.38;5073001;28;20503;-75
2022/01/09 06:20:07;;;;;;;12.90;5.15;;;;;;;1.19;49.18;98995.75;5073850;28;20044;-75
2022/01/09 06:22:33;;;;;;;12.32;5.25;;;;;;;1.01;50.38;98985.91;5073032;28;20123;-75
2022/01/09 06:25:00;;;;;;;12.27;5.22;;;;;;;0.38;51.18;98985.53;5072256;28;20143;-75
2022/01/09 06:27:26;;;;;;;11.15;5.05;;;;;;;0.23;52.04;98982.47;5072611;28;20081;-75
2022/01/09 06:29:53;;;;;;;15.15;5.05;;;;;;;0.69;50.80;98982.78;5071917;28;20060;-75
2022/01/09 06:32:19;;;;;;;12.10;5.45;;;;;;;1.25;49.61;98989.91;5072509;28;20120;-75
2022/01/09 06:34:46;;;;;;;11.77;4.93;;;;;;;0.48;51.31;98982.91;5072370;28;20127;-75
2022/01/09 06:37:13;;;;;;;10.48;5.35;;;;;;;1.14;49.76;98985.63;5072142;28;20050;-75
2022/01/09 06:39:40;;;;;;;11.82;5.10;;;;;;;0.98;50.01;98994.13;5072901;28;20060;-75
2022/01/09 06:42:06;;;;;;;14.60;5.68;;;;;;;0.84;50.07;98991.09;5073363;28;20481;-75
2022/01/09 06:44:33;;;;;;;8.02;4.60;;;;;;;1.39;48.96;98997.38;5072175;28;20127;-75
2022/01/09 06:47:00;;;;;;;13.57;5.32;;;;;;;0.85;50.37;98995.38;5072570;28;20158;-75
2022/01/09 06:49:26;;;;;;;10.27;4.80;;;;;;;0.67;51.12;98982.88;5072394;28;20484;-75
2022/01/09 06:51:52;;;;;;;14.70;5.70;;;;;;;1.13;49.35;98988.44;5072286;28;20142;-75
2022/01/09 06:54:19;;;;;;;16.70;5.30;;;;;;;0.92;50.73;98989.44;5072283;28;20056;-75
2022/01/09 06:56:45;;;;;;;12.00;5.63;;;;;;;1.59;48.72;98987.56;5072315;28;20040;-75
2022/01/09 06:59:12;;;;;;;12.85;5.40;;;;;;;0.72;50.46;98982.50;5072568;28;20421;-75
2022/01/09 07:01:38;;;;;;;11.65;5.15;;;;;;;1.36;49.12;98984.44;5062503;28;20123;-75
2022/01/09 07:04:04;;;;;;;10.90;4.97;;;;;;;0.91;50.91;98982.47;5071646;28;20067;-75
2022/01/09 07:06:31;;;;;;;12.45;5.47;;;;;;;1.48;48.77;98983.31;5072513;28;20052;-75
2022/01/09 07:08:57;;;;;;;10.90;5.30;;;;;;;0.73;50.62;98984.16;5071195;28;20143;-75
2022/01/09 07:11:24;;;;;;;11.35;5.30;;;;;;;0.90;50.42;98979.97;5072181;28;20083;-75
2022/01/09 07:13:50;;;;;;;12.70;5.78;;;;;;;0.97;49.78;98966.06;5071845;28;20044;-75
2022/01/09 07:16:17;;;;;;;13.57;5.47;;;;;;;1.26;49.63;98983.63;5070783;28;20060;-75
2022/01/09 07:18:43;;;;;;;13.38;4.72;;;;;;;0.83;50.37;98979.69;5072933;28;20506;-75
2022/01/09 07:21:10;;;;;;;14.40;5.50;;;;;;;0.93;50.14;98975.25;5071852;28;20072;-76
2022/01/09 07:23:36;;;;;;;10.93;5.45;;;;;;;0.97;50.02;98981.91;5070904;28;20132;-76
2022/01/09 07:26:03;;;;;;;9.63;5.55;;;;;;;1.13;49.78;98972.56;5071203;28;20063;-74
2022/01/09 07:28:30;;;;;;;14.60;5.90;;;;;;;0.65;50.31;98981.38;5071131;28;20545;-74
2022/01/09 07:30:56;;;;;;;13.43;5.03;;;;;;;1.34;49.44;98981.13;5071344;28;20068;-74
2022/01/09 07:33:23;;;;;;;13.35;5.38;;;;;;;1.32;48.93;98974.31;5071560;28;20048;-74
2022/01/09 07:35:49;;;;;;;14.43;5.63;;;;;;;1.51;48.92;98983.97;5053503;28;20054;-74
2022/01/09 07:38:16;;;;;;;11.02;5.38;;;;;;;1.65;48.39;98980.88;5071978;28;20135;-74
2022/01/09 07:40:43;;;;;;;11.60;5.88;;;;;;;1.14;49.32;98976.88;5072778;28;20127;-74
2022/01/09 07:43:09;;;;;;;14.85;5.85;;;;;;;0.77;50.64;98990.81;5072487;28;20123;-74
2022/01/09 07:45:35;;;;;;;10.98;4.78;;;;;;;0.74;50.21;98988.44;5071654;28;20465;-74
2022/01/09 07:48:02;;;;;;;14.98;6.28;;;;;;;1.72;48.21;98987.25;5071081;28;20072;-74
2022/01/09 07:50:28;;;;;;;14.43;6.55;;;;;;;1.48;48.72;98993.88;5062119;28;20048;-75
2022/01/09 07:52:56;;;;;;;14.95;6.47;;;;;;;1.44;48.56;98989.88;5071604;28;20452;-75
2022/01/09 07:55:23;;;;;;;10.43;6.10;;;;;;;0.82;49.74;99001.81;5072434;28;20124;-76
2022/01/09 07:57:50;;;;;;;13.00;6.32;;;;;;;1.06;50.03;98985.50;5075366;28;20045;-74
2022/01/09 08:00:18;;;;;;;12.43;6.28;;;;;;;1.49;48.92;98987.59;5075588;28;20044;-75
2022/01/09 08:02:45;;;;;;;18.73;6.78;;;;;;;1.33;48.68;98992.66;5075449;28;20075;-75
2022/01/09 08:05:13;;;;;;;13.40;6.10;;;;;;;1.67;48.10;98992.13;5075676;28;20067;-75
2022/01/09 08:07:40;;;;;;;12.55;6.30;;;;;;;1.83;47.74;98997.63;5075324;28;20481;-74
2022/01/09 08:10:07;;;;;;;19.13;6.90;;;;;;;1.54;48.72;98988.97;5075759;28;20048;-75
2022/01/09 08:12:35;;;;;;;9.88;5.32;;;;;;;0.87;49.90;98998.72;5075502;28;20082;-76
2022/01/09 08:15:03;;;;;;;12.68;6.15;;;;;;;1.24;48.61;98978.50;5075791;28;20103;-75
2022/01/09 08:17:30;;;;;;;17.83;7.05;;;;;;;0.91;49.38;98993.03;5057134;28;20076;-75
2022/01/09 08:19:57;;;;;;;18.08;6.65;;;;;;;1.49;48.46;98984.97;5075514;28;20050;-74
2022/01/09 08:22:28;;;;;;;17.73;6.93;;;;;;;1.35;48.87;98989.88;5074412;28;20080;-75
2022/01/09 08:24:55;;;;;;;12.77;6.70;;;;;;;1.54;48.74;98984.53;5075695;28;20070;-76
2022/01/09 08:27:21;;;;;;;11.45;6.07;;;;;;;1.09;48.93;98985.25;5074673;28;20056;-76
2022/01/09 08:29:48;;;;;;;15.13;6.18;;;;;;;1.16;48.85;98986.31;5074666;28;20136;-76
2022/01/09 08:32:14;;;;;;;15.32;6.47;;;;;;;1.74;47.62;98990.56;5074867;28;20476;-76
2022/01/09 08:34:41;;;;;;;17.90;6.60;;;;;;;1.37;49.02;98994.06;5075754;28;20048;-75
2022/01/09 08:37:11;;;;;;;10.77;5.95;;;;;;;1.89;47.76;98997.06;5075355;28;20056;-75
2022/01/09 08:39:42;;;;;;;12.70;6.53;;;;;;;1.69;47.77;98995.47;5075198;28;20044;-75
2022/01/09 08:42:08;;;;;;;14.15;7.32;;;;;;;1.08;49.06;98985.34;5073808;28;20075;-75
2022/01/09 08:44:35;;;;;;;18.63;7.38;;;;;;;1.54;48.76;98992.44;5075104;28;20064;-74
2022/01/09 08:47:02;;;;;;;14.20;7.22;;;;;;;1.91;47.46;99003.00;5073258;28;20460;-76
2022/01/09 08:49:29;;;;;;;14.90;6.25;;;;;;;1.86;47.51;99000.00;5075123;28;20044;-75
2022/01/09 08:51:55;;;;;;;11.27;6.05;;;;;;;2.04;47.13;98999.25;5074878;28;20083;-74
2022/01/09 08:54:22;;;;;;;15.02;6.53;;;;;;;2.23;46.58;98998.28;5074307;28;20488;-76
2022/01/09 08:56:48;;;;;;;15.23;6.95;;;;;;;1.59;47.99;98998.16;5073605;28;20120;-76
2022/01/09 08:59:15;;;;;;;13.70;6.90;;;;;;;1.87;47.47;99001.66;5074276;28;20048;-76
2022/01/09 09:01:43;;;;;;;13.40;6.18;;;;;;;1.90;47.04;98996.06;5075197;28;20049;-74
2022/01/09 09:04:10;;;;;;;14.75;6.72;;;;;;;1.68;48.02;98999.06;5074184;28;20044;-75
2022/01/09 09:06:37;;;;;;;13.40;6.93;;;;;;;1.93;47.63;99001.09;5074069;28;20512;-74
2022/01/09 09:09:04;;;;;;;17.60;7.32;;;;;;;2.02;47.08;98998.53;5075320;28;20091;-74
2022/01/09 09:11:30;;;;;;;14.52;6.32;;;;;;;1.72;48.06;99003.13;5075684;28;20051;-74
2022/01/09 09:13:57;;;;;;;12.88;6.65;;;;;;;1.43;48.04;98997.91;5074122;28;20072;-75
2022/01/09 09:16:23;;;;;;;14.07;6.10;;;;;;;1.44;48.46;99004.91;5074442;28;20048;-77
2022/01/09 09:18:50;;;;;;;12.15;6.20;;;;;;;2.25;47.24;99010.38;5075244;28;20470;-76
2022/01/09 09:21:18;;;;;;;18.23;6.85;;;;;;;1.71;47.87;99006.72;5075288;28;20041;-76
2022/01/09 09:23:44;;;;;;;17.15;6.93;;;;;;;1.93;47.10;99016.97;5074842;28;20079;-76
2022/01/09 09:26:11;;;;;;;15.00;6.80;;;;;;;2.06;46.72;99005.19;5083226;28;20133;-76
2022/01/09 09:28:38;;;;;;;11.25;5.78;;;;;;;1.53;48.37;99011.09;5083960;28;20049;-76
2022/01/09 09:31:05;;;;;;;14.55;6.97;;;;;;;1.86;48.07;99010.56;5076162;28;20480;-75
2022/01/09 09:33:31;;;;;;;14.63;7.00;;;;;;;1.86;47.53;99015.84;5075460;28;20104;-75
2022/01/09 09:35:59;;;;;;;15.63;6.18;;;;;;;1.87;47.84;99009.59;5075195;28;20128;-77
2022/01/09 09:38:27;;;;;;;14.45;6.32;;;;;;;2.11;47.34;99021.47;5074874;28;20377;-78
2022/01/09 09:40:53;;;;;;;14.70;7.30;;;;;;;1.85;48.19;99024.75;5057433;28;20048;-76
2022/01/09 09:43:21;;;;;;;13.80;6.10;;;;;;;1.65;47.90;99031.94;5076310;28;20079;-77
2022/01/09 09:45:48;;;;;;;15.15;6.00;;;;;;;1.67;48.66;99023.84;5075572;28;20048;-76
2022/01/09 09:48:15;;;;;;;17.27;6.55;;;;;;;2.06;47.65;99026.34;5074554;28;20064;-76
2022/01/09 09:50:41;;;;;;;15.90;6.40;;;;;;;1.40;48.80;99022.84;5075830;28;20048;-77
2022/01/09 09:53:08;;;;;;;15.57;6.93;;;;;;;2.10;47.74;99033.88;5075026;28;20064;-76
2022/01/09 09:55:34;;;;;;;11.00;5.93;;;;;;;2.56;46.42;99028.56;5074838;28;20457;-76
2022/01/09 09:58:01;;;;;;;14.82;5.80;;;;;;;1.60;48.40;99031.53;5075233;28;20537;-76
2022/01/09 10:00:27;;;;;;;11.07;5.47;;;;;;;1.93;47.35;99016.97;5075593;28;20044;-76
2022/01/09 10:02:57;;;;;;;11.35;5.75;;;;;;;1.43;49.54;99022.53;5074567;28;20044;-78
2022/01/09 10:05:26;;;;;;;11.77;5.05;;;;;;;2.93;46.11;99016.97;5075623;28;20057;-77
2022/01/09 10:08:03;;;;;;;10.63;5.40;;;;;;;3.07;45.66;99017.28;5075337;28;20064;-74
2022/01/09 10:10:32;;;;;;;14.20;5.38;;;;;;;2.16;46.85;99020.03;5074702;28;20493;-74
2022/01/09 10:13:12;;;;;;;11.60;5.68;;;;;;;2.29;46.57;99027.63;5074704;28;20365;-74
2022/01/09 10:15:46;;;;;;;17.25;6.03;;;;;;;1.97;47.98;99025.44;5074025;28;20045;-74
2022/01/09 10:18:13;;;;;;;14.45;6.03;;;;;;;2.85;46.26;99023.88;5074373;28;20451;-74
2022/01/09 10:20:41;;;;;;;11.45;5.38;;;;;;;2.86;45.56;99024.72;5073624;28;20124;-76
2022/01/09 10:23:08;;;;;;;14.20;6.30;;;;;;;2.41;46.68;99034.38;5073943;28;20072;-74
2022/01/09 10:25:37;;;;;;;10.43;5.38;;;;;;;3.01;45.95;99032.97;5073585;28;20441;-75
2022/01/09 10:28:12;;;;;;;14.15;5.50;;;;;;;2.73;45.77;99033.03;5074121;28;20055;-75
2022/01/09 10:30:45;;;;;;;9.40;4.47;;;;;;;2.43;47.03;99029.75;5073864;28;20076;-75
2022/01/09 10:33:18;;;;;;;13.27;5.85;;;;;;;2.95;45.72;99030.91;5073083;28;20123;-75
2022/01/09 10:35:47;;;;;;;11.35;5.03;;;;;;;3.63;43.99;99026.59;5073426;28;20075;-74
2022/01/09 10:38:24;;;;;;;13.50;5.47;;;;;;;2.39;47.31;99033.69;5073963;28;20071;-75
2022/01/09 10:40:54;;;;;;;9.77;5.28;;;;;;;3.02;45.69;99024.84;5074018;28;20440;-75
2022/01/09 10:43:23;;;;;;;11.82;5.15;;;;;;;3.32;45.42;99020.13;5073423;28;20074;-75
2022/01/09 10:46:01;;;;;;;14.35;5.10;;;;;;;3.60;44.82;99026.09;5073526;28;20135;-74
2022/01/09 10:48:40;;;;;;;9.40;4.53;;;;;;;2.12;47.46;99026.59;5072052;28;20048;-75
2022/01/09 10:51:13;;;;;;;14.73;5.22;;;;;;;3.31;45.85;99034.38;5073067;28;20128;-75
2022/01/09 10:53:41;;;;;;;12.77;5.65;;;;;;;2.76;46.34;99030.09;5073584;28;20079;-75
2022/01/09 10:56:14;;;;;;;14.13;5.40;;;;;;;3.54;45.07;99018.75;5073734;28;20079;-75
2022/01/09 10:58:43;;;;;;;10.40;4.95;;;;;;;2.98;46.53;99030.63;5073852;28;20127;-75
2022/01/09 11:01:16;;;;;;;15.15;5.03;;;;;;;3.41;45.09;99035.06;5073840;28;20148;-74
2022/01/09 11:03:48;;;;;;;13.50;5.45;;;;;;;3.60;45.02;99032.22;5073484;28;20052;-75
2022/01/09 11:06:16;;;;;;;13.63;5.07;;;;;;;3.49;45.29;99037.78;5077212;28;20053;-75
2022/01/09 11:08:43;;;;;;;12.73;4.75;;;;;;;3.58;45.19;99028.06;5077365;28;20442;-75
2022/01/09 11:11:20;;;;;;;9.95;4.20;;;;;;;3.97;43.99;99040.88;5075990;28;20044;-75
2022/01/09 11:13:47;;;;;;;9.73;5.10;;;;;;;4.40;43.39;99037.25;5076343;28;20107;-75
2022/01/09 11:16:33;;;;;;;13.23;5.88;;;;;;;3.91;44.23;99041.50;5079942;28;20049;-75
2022/01/09 11:19:26;;;;;;;9.77;4.88;;;;;;;4.21;44.13;99043.63;5082649;28;20048;-75
2022/01/09 11:21:55;;;;;;;10.13;5.45;;;;;;;3.21;45.36;99038.94;5078513;28;20052;-75
2022/01/09 11:24:55;;;;;;;14.10;5.32;;;;;;;4.19;44.30;99042.94;5072801;28;20080;-75
2022/01/09 11:27:46;;;;;;;12.13;4.95;;;;;;;4.75;42.80;99045.94;5066451;28;20045;-75
2022/01/09 11:30:29;;;;;;;16.70;7.68;;;;;;;4.16;44.40;99048.56;5072722;28;20066;-74
2022/01/09 11:33:34;;;;;;;11.95;6.00;;;;;;;4.40;44.13;99057.66;5075478;28;20075;-76
2022/01/09 11:36:12;;;;;;;9.10;5.30;;;;;;;3.50;45.66;99050.06;5076272;28;20528;-73
2022/01/09 11:39:11;;;;;;;11.63;5.13;;;;;;;3.28;46.39;99056.69;5075083;28;20151;-73